Time;durP1;ratioP1;P1;durP2;ratioP2;P2;SDS_P1;SDS_P2;PMS_P1;PMS_P2;Temp;Humidity;BMP_temperature;BMP_pressure;BME280_temperature;BME280_humidity;BME280_pressure;Samples;Min_cycle;Max_cycle;Signal;HPM_P1;HPM_P2
2024/03/26 07:38:35;;;;;;;4.68;2.35;;;20.20;53.70;;;;;;5105259;27;20307;-76
2024/03/26 07:41:01;;;;;;;10.15;3.70;;;18.20;37.10;;;;;;5085291;28;20062;-75
2024/03/26 07:43:27;;;;;;;4.43;2.28;;;15.70;39.20;;;;;;5082233;28;20044;-75
2024/03/26 07:45:53;;;;;;;4.55;2.00;;;14.00;43.10;;;;;;5098374;28;20415;-75
2024/03/26 07:48:20;;;;;;;3.90;2.53;;;12.40;45.40;;;;;;5081005;28;20125;-74
2024/03/26 07:50:46;;;;;;;5.03;2.45;;;11.30;48.00;;;;;;5083430;28;20064;-76
2024/03/26 07:53:12;;;;;;;3.08;2.35;;;10.50;50.10;;;;;;5081097;28;20048;-76
2024/03/26 07:55:38;;;;;;;3.85;2.60;;;9.80;53.40;;;;;;5081253;28;20063;-76
2024/03/26 07:58:04;;;;;;;4.30;2.47;;;9.30;55.00;;;;;;5082035;28;20044;-75
2024/03/26 08:00:30;;;;;;;2.97;2.50;;;9.00;56.80;;;;;;5088755;28;20421;-76
2024/03/26 08:02:58;;;;;;;5.10;2.60;;;8.80;57.70;;;;;;5075914;28;20067;-76
2024/03/26 08:05:25;;;;;;;4.95;2.60;;;8.60;58.60;;;;;;5088474;28;20048;-76
2024/03/26 08:07:52;;;;;;;5.40;2.60;;;8.60;59.60;;;;;;5089050;28;20051;-76
2024/03/26 08:10:19;;;;;;;3.95;2.53;;;8.70;58.80;;;;;;5074894;28;20056;-76
2024/03/26 08:12:50;;;;;;;4.88;2.53;;;8.70;59.20;;;;;;5075534;28;20071;-76
2024/03/26 08:15:17;;;;;;;5.07;2.80;;;8.80;59.00;;;;;;5079638;28;20060;-76
2024/03/26 08:17:43;;;;;;;4.18;2.67;;;8.90;58.90;;;;;;5091865;28;20049;-76
2024/03/26 08:20:10;;;;;;;5.90;2.60;;;9.00;58.80;;;;;;5086764;28;20062;-76
2024/03/26 08:22:39;;;;;;;4.70;2.55;;;9.10;58.50;;;;;;5082788;28;20052;-75
2024/03/26 08:25:05;;;;;;;6.53;2.92;;;9.10;58.70;;;;;;5081240;28;20044;-76
2024/03/26 08:27:34;;;;;;;4.32;3.30;;;9.30;59.40;;;;;;5079194;28;20052;-77
2024/03/26 08:30:00;;;;;;;8.30;4.45;;;9.40;59.10;;;;;;5098132;28;20048;-75
2024/03/26 08:32:26;;;;;;;8.40;4.47;;;9.60;59.10;;;;;;5080027;28;20059;-76
2024/03/26 08:34:52;;;;;;;6.93;4.93;;;9.80;59.20;;;;;;5077878;28;20048;-76
2024/03/26 08:37:20;;;;;;;7.45;4.88;;;10.00;58.30;;;;;;5076055;28;20060;-75
2024/03/26 08:39:46;;;;;;;6.78;4.80;;;10.30;58.00;;;;;;5085999;28;20556;-76
2024/03/26 08:42:12;;;;;;;9.15;4.85;;;10.50;58.10;;;;;;5079343;28;20056;-77
2024/03/26 08:44:38;;;;;;;7.35;4.82;;;10.70;58.70;;;;;;5078506;28;20105;-77
2024/03/26 08:47:04;;;;;;;6.22;4.80;;;11.00;58.40;;;;;;5089761;28;20060;-77
2024/03/26 08:49:31;;;;;;;8.85;4.82;;;11.30;58.20;;;;;;5071164;28;20381;-77
2024/03/26 08:51:59;;;;;;;6.28;4.45;;;11.60;57.40;;;;;;5076197;28;20056;-77
2024/03/26 08:54:25;;;;;;;6.53;4.22;;;11.90;56.70;;;;;;5066134;28;20051;-77
2024/03/26 08:56:51;;;;;;;8.27;4.82;;;12.20;55.50;;;;;;5089789;28;20369;-77
2024/03/26 08:59:20;;;;;;;6.47;4.20;;;12.40;55.20;;;;;;5071813;28;20060;-77
2024/03/26 09:01:46;;;;;;;6.75;4.47;;;12.80;55.70;;;;;;5083937;28;20049;-77
2024/03/26 09:04:12;;;;;;;8.68;4.32;;;13.10;54.90;;;;;;5069138;28;20051;-77
2024/03/26 09:06:38;;;;;;;5.03;3.47;;;13.50;52.80;;;;;;5067693;28;20048;-77
2024/03/26 09:09:06;;;;;;;6.43;4.30;;;13.80;53.10;;;;;;5064908;28;20067;-77
2024/03/26 09:11:32;;;;;;;6.28;4.22;;;14.20;53.90;;;;;;5064549;28;20060;-77
2024/03/26 09:13:58;;;;;;;5.85;4.40;;;14.70;53.20;;;;;;5063974;28;20052;-77
2024/03/26 09:16:23;;;;;;;5.38;4.22;;;15.10;54.50;;;;;;5063724;28;20543;-77
2024/03/26 09:18:52;;;;;;;8.18;4.53;;;15.50;51.90;;;;;;5061012;28;20194;-77
2024/03/26 09:21:20;;;;;;;7.97;4.50;;;16.10;50.50;;;;;;5075878;28;20059;-77
2024/03/26 09:23:46;;;;;;;7.40;4.60;;;16.50;49.60;;;;;;5092238;28;20052;-77
2024/03/26 09:26:14;;;;;;;5.05;3.90;;;16.80;48.20;;;;;;5093432;28;20388;-78
2024/03/26 09:28:41;;;;;;;7.07;4.32;;;17.20;48.50;;;;;;5073027;28;20052;-78
2024/03/26 09:31:09;;;;;;;5.40;4.20;;;17.60;47.00;;;;;;5059045;28;20102;-77
2024/03/26 09:33:37;;;;;;;5.43;4.00;;;18.00;45.30;;;;;;5064306;28;20068;-77
2024/03/26 09:36:04;;;;;;;5.15;3.97;;;18.30;43.70;;;;;;5077778;28;20048;-77
2024/03/26 09:38:32;;;;;;;5.97;4.28;;;18.50;42.50;;;;;;5062005;28;20373;-77
2024/03/26 09:41:04;;;;;;;6.03;3.90;;;18.70;42.20;;;;;;5066850;28;20056;-77
2024/03/26 09:43:31;;;;;;;5.30;4.05;;;19.00;41.80;;;;;;5067738;28;20495;-77
2024/03/26 09:45:58;;;;;;;6.25;3.80;;;19.20;42.10;;;;;;5083112;28;20044;-77
2024/03/26 09:48:29;;;;;;;7.90;4.05;;;19.30;41.10;;;;;;5067938;28;20059;-77
2024/03/26 09:50:56;;;;;;;5.78;4.05;;;19.70;41.60;;;;;;5062798;28;20056;-77
2024/03/26 09:53:23;;;;;;;5.22;3.65;;;20.60;41.60;;;;;;5065043;28;20729;-78
2024/03/26 09:55:49;;;;;;;7.93;4.38;;;21.30;39.10;;;;;;5063310;28;20063;-78
2024/03/26 09:58:18;;;;;;;5.78;3.95;;;22.20;37.80;;;;;;5072602;28;20073;-78
2024/03/26 10:00:49;;;;;;;6.00;3.78;;;23.40;36.40;;;;;;5065231;28;20075;-77
2024/03/26 10:03:24;;;;;;;5.70;3.47;;;24.60;35.10;;;;;;5072649;28;20056;-78
2024/03/26 10:05:53;;;;;;;4.45;3.42;;;26.00;33.00;;;;;;5056363;28;20386;-78
2024/03/26 10:08:19;;;;;;;7.25;3.80;;;26.90;30.60;;;;;;5086203;28;20036;-78
2024/03/26 10:10:45;;;;;;;4.22;3.45;;;27.40;29.90;;;;;;5075029;28;20048;-77
2024/03/26 10:13:12;;;;;;;6.20;3.35;;;27.80;29.40;;;;;;5060965;28;20105;-78
2024/03/26 10:15:38;;;;;;;6.20;3.92;;;28.20;28.50;;;;;;5080570;28;20062;-77
2024/03/26 10:18:08;;;;;;;10.50;4.10;;;27.90;27.80;;;;;;5083247;28;20053;-77
2024/03/26 10:20:34;;;;;;;5.75;3.83;;;27.70;28.80;;;;;;5063388;28;20048;-78
2024/03/26 10:23:03;;;;;;;5.20;4.13;;;27.90;29.20;;;;;;5065482;28;20048;-78
2024/03/26 10:25:29;;;;;;;6.38;3.50;;;28.20;28.30;;;;;;5063332;28;20465;-78
2024/03/26 10:27:56;;;;;;;4.78;3.40;;;28.50;28.40;;;;;;5076444;28;20083;-78
2024/03/26 10:30:25;;;;;;;9.38;3.80;;;29.30;28.50;;;;;;5086152;28;20060;-78
2024/03/26 10:32:58;;;;;;;7.10;3.67;;;30.10;26.70;;;;;;5081945;28;20048;-78
2024/03/26 10:35:26;;;;;;;4.07;3.28;;;30.90;25.40;;;;;;5058679;28;20059;-78
2024/03/26 10:37:56;;;;;;;7.38;3.38;;;31.60;25.90;;;;;;5070422;28;20052;-78
2024/03/26 10:40:27;;;;;;;4.00;3.25;;;32.70;24.40;;;;;;5071034;28;20056;-78
2024/03/26 10:42:56;;;;;;;4.30;3.17;;;33.70;23.90;;;;;;5071690;28;20058;-78
2024/03/26 10:45:25;;;;;;;7.10;3.03;;;34.70;23.50;;;;;;5067100;28;20480;-78
2024/03/26 10:47:54;;;;;;;4.03;3.45;;;35.40;22.30;;;;;;5063313;28;20048;-79
2024/03/26 10:50:23;;;;;;;5.38;3.25;;;36.10;21.60;;;;;;5078194;28;20048;-78
2024/03/26 10:52:51;;;;;;;5.63;3.20;;;36.50;21.10;;;;;;5076437;28;20052;-78
2024/03/26 10:55:20;;;;;;;7.03;3.13;;;37.10;21.10;;;;;;5080974;28;20045;-79
2024/03/26 10:57:46;;;;;;;5.90;3.40;;;37.80;20.20;;;;;;5078389;28;20424;-77
2024/03/26 11:00:16;;;;;;;4.68;2.80;;;37.80;19.70;;;;;;5063664;28;20105;-77
2024/03/26 11:02:57;;;;;;;4.80;3.15;;;37.70;19.90;;;;;;5081979;28;20052;-77
2024/03/26 11:05:26;;;;;;;4.57;3.20;;;38.40;20.70;;;;;;5071372;28;20048;-77
2024/03/26 11:07:52;;;;;;;4.57;3.00;;;39.10;20.10;;;;;;5081621;28;20060;-79
2024/03/26 11:10:21;;;;;;;3.17;2.85;;;39.20;18.90;;;;;;5069200;28;20064;-78
2024/03/26 11:12:51;;;;;;;5.22;2.83;;;39.50;19.00;;;;;;5078466;28;20047;-79
2024/03/26 11:15:17;;;;;;;3.80;2.88;;;39.10;18.60;;;;;;5064461;28;20059;-79
2024/03/26 11:18:00;;;;;;;3.60;2.97;;;39.00;18.90;;;;;;5073259;28;20044;-78
2024/03/26 11:20:28;;;;;;;7.18;2.92;;;39.00;18.50;;;;;;5067204;28;20447;-78
2024/03/26 11:23:04;;;;;;;5.22;2.78;;;38.40;19.00;;;;;;5070541;28;20503;-78
2024/03/26 11:25:32;;;;;;;7.35;3.45;;;37.80;20.00;;;;;;5077668;28;20049;-79
2024/03/26 11:28:02;;;;;;;4.40;3.17;;;37.60;19.60;;;;;;5069688;28;20056;-78
2024/03/26 11:30:30;;;;;;;3.97;2.67;;;37.30;20.00;;;;;;5069238;28;20121;-78
2024/03/26 11:32:57;;;;;;;4.38;2.83;;;37.10;20.50;;;;;;5066324;28;20380;-80
2024/03/26 11:35:25;;;;;;;4.00;2.80;;;36.90;20.50;;;;;;5061949;28;20393;-80
2024/03/26 11:37:53;;;;;;;6.57;3.28;;;37.00;20.50;;;;;;5080908;28;20389;-79
2024/03/26 11:40:20;;;;;;;3.80;3.05;;;36.40;20.10;;;;;;5076285;28;20419;-78
2024/03/26 11:42:48;;;;;;;5.70;3.13;;;36.10;20.70;;;;;;5079753;28;20055;-80
2024/03/26 11:45:16;;;;;;;5.03;3.45;;;35.70;20.60;;;;;;5072269;28;20048;-79
2024/03/26 11:47:42;;;;;;;4.93;3.45;;;35.00;21.10;;;;;;5064828;28;20067;-78
2024/03/26 11:50:11;;;;;;;4.00;3.13;;;33.90;21.90;;;;;;5059802;28;20489;-80
2024/03/26 11:52:38;;;;;;;4.70;3.22;;;32.80;23.00;;;;;;5073446;28;20052;-79
2024/03/26 11:55:08;;;;;;;9.55;3.30;;;31.50;24.20;;;;;;5090120;28;20044;-78
2024/03/26 11:57:37;;;;;;;5.35;3.38;;;30.50;25.20;;;;;;5055265;28;20473;-79
2024/03/26 12:00:07;;;;;;;7.47;3.70;;;29.80;26.20;;;;;;5079853;28;20051;-78
2024/03/26 12:02:35;;;;;;;6.57;3.70;;;30.10;26.10;;;;;;5084612;28;20051;-78
2024/03/26 12:05:04;;;;;;;4.10;3.22;;;30.40;26.10;;;;;;5076667;28;20090;-78
2024/03/26 12:07:31;;;;;;;4.07;3.20;;;30.80;25.40;;;;;;5065179;28;20064;-79
2024/03/26 12:09:58;;;;;;;4.28;2.90;;;31.40;25.60;;;;;;5067447;28;20373;-79
2024/03/26 12:12:27;;;;;;;5.53;2.92;;;32.00;24.60;;;;;;5061693;28;20049;-79
2024/03/26 12:14:54;;;;;;;3.92;2.90;;;32.70;23.50;;;;;;5078751;28;20064;-79
2024/03/26 12:17:22;;;;;;;5.55;3.22;;;33.40;23.10;;;;;;5078760;28;20059;-79
2024/03/26 12:19:49;;;;;;;5.75;3.05;;;33.80;22.70;;;;;;5083321;28;20052;-79
2024/03/26 12:22:21;;;;;;;4.15;2.83;;;33.90;22.20;;;;;;5078898;28;20056;-79
2024/03/26 12:24:47;;;;;;;5.90;2.83;;;33.90;22.50;;;;;;5070451;28;20456;-79
2024/03/26 12:27:15;;;;;;;4.15;2.97;;;33.80;22.40;;;;;;5082497;28;20526;-79
2024/03/26 12:29:45;;;;;;;4.53;3.00;;;33.30;21.90;;;;;;5076523;28;20073;-78
2024/03/26 12:32:15;;;;;;;6.97;2.78;;;32.30;22.90;;;;;;5062377;28;20055;-79
2024/03/26 12:34:41;;;;;;;5.65;3.10;;;31.10;24.10;;;;;;5058252;28;20052;-79
2024/03/26 12:37:13;;;;;;;4.03;3.20;;;30.30;25.20;;;;;;5057376;28;20072;-79
2024/03/26 12:39:39;;;;;;;6.82;3.28;;;30.00;25.80;;;;;;5078584;28;20048;-79
2024/03/26 12:42:08;;;;;;;6.43;3.08;;;30.40;26.50;;;;;;5076701;28;20074;-79
2024/03/26 12:44:34;;;;;;;6.50;3.00;;;31.30;25.20;;;;;;5078869;28;20385;-79
2024/03/26 12:47:00;;;;;;;5.03;2.90;;;32.00;24.50;;;;;;5062747;28;20067;-79
2024/03/26 12:49:26;;;;;;;3.75;2.80;;;33.10;23.30;;;;;;5080966;28;20060;-80
2024/03/26 12:51:58;;;;;;;4.32;2.65;;;33.80;24.00;;;;;;5066293;28;20086;-79
2024/03/26 12:54:24;;;;;;;5.35;2.67;;;34.80;22.00;;;;;;5080823;28;20063;-80
2024/03/26 12:56:52;;;;;;;5.50;2.90;;;35.50;21.40;;;;;;5069006;28;20044;-80
2024/03/26 12:59:21;;;;;;;5.78;2.80;;;36.00;21.50;;;;;;5083262;28;20380;-80
2024/03/26 13:01:49;;;;;;;5.30;2.92;;;36.40;20.80;;;;;;5086764;28;20047;-79
2024/03/26 13:04:16;;;;;;;6.22;3.03;;;36.60;20.60;;;;;;5071792;28;20078;-79
2024/03/26 13:06:42;;;;;;;4.28;2.78;;;36.50;20.70;;;;;;5079370;28;20048;-79
2024/03/26 13:09:13;;;;;;;3.90;2.78;;;36.10;20.50;;;;;;5084601;28;20170;-80
2024/03/26 13:11:39;;;;;;;3.65;2.63;;;35.60;21.00;;;;;;5084716;28;20162;-79
2024/03/26 13:14:07;;;;;;;4.43;3.00;;;34.60;21.40;;;;;;5056308;28;20516;-80
2024/03/26 13:16:33;;;;;;;5.28;2.90;;;33.70;22.20;;;;;;5070700;28;20067;-80
2024/03/26 13:18:59;;;;;;;5.50;3.28;;;32.40;22.90;;;;;;5090413;28;20063;-79
2024/03/26 13:21:25;;;;;;;6.32;2.88;;;31.50;23.80;;;;;;5065541;28;20067;-79
2024/03/26 13:23:55;;;;;;;4.45;2.83;;;30.90;24.40;;;;;;5065055;28;20055;-79
2024/03/26 13:26:21;;;;;;;5.57;3.15;;;30.10;24.50;;;;;;5065178;28;20059;-79
2024/03/26 13:28:47;;;;;;;6.13;3.25;;;29.30;25.30;;;;;;5082095;28;20052;-79
2024/03/26 13:31:13;;;;;;;5.50;2.95;;;28.80;26.10;;;;;;5066074;28;20067;-79
2024/03/26 13:33:41;;;;;;;4.57;2.83;;;28.60;26.40;;;;;;5082214;28;20052;-79
2024/03/26 13:36:08;;;;;;;4.85;3.15;;;28.50;26.90;;;;;;5065844;28;20634;-79
2024/03/26 13:38:37;;;;;;;6.47;3.10;;;28.10;26.60;;;;;;5069627;28;20120;-79
2024/03/26 13:41:06;;;;;;;6.25;3.17;;;27.50;27.20;;;;;;5084514;28;20045;-79
2024/03/26 13:43:34;;;;;;;6.00;2.63;;;27.10;28.10;;;;;;5075756;28;20514;-79
2024/03/26 13:46:00;;;;;;;6.05;3.20;;;26.90;27.90;;;;;;5075250;28;20056;-79
2024/03/26 13:48:28;;;;;;;4.07;2.97;;;26.50;28.40;;;;;;5057657;28;20458;-79
2024/03/26 13:50:57;;;;;;;4.97;2.88;;;26.20;28.80;;;;;;5091869;28;20052;-79
2024/03/26 13:53:22;;;;;;;4.30;2.97;;;26.00;28.90;;;;;;5090451;28;20468;-79
2024/03/26 13:55:48;;;;;;;4.00;2.53;;;25.40;29.00;;;;;;5072234;28;20052;-79
2024/03/26 13:58:14;;;;;;;4.05;2.53;;;25.20;29.70;;;;;;5075824;28;20066;-79
2024/03/26 14:00:42;;;;;;;5.32;3.33;;;24.90;30.30;;;;;;5079602;28;20087;-79
2024/03/26 14:03:10;;;;;;;5.25;2.72;;;24.60;31.20;;;;;;5068988;28;20531;-79
2024/03/26 14:05:36;;;;;;;5.00;2.60;;;24.20;31.20;;;;;;5067724;28;20056;-79
2024/03/26 14:08:02;;;;;;;3.70;2.70;;;23.90;31.50;;;;;;5065424;28;20055;-79
2024/03/26 14:10:28;;;;;;;9.20;2.97;;;23.60;32.40;;;;;;5064670;28;20052;-79
2024/03/26 14:12:54;;;;;;;5.72;2.70;;;23.30;33.00;;;;;;5082766;28;20465;-79
2024/03/26 14:15:20;;;;;;;6.57;2.60;;;23.10;33.40;;;;;;5067954;28;20059;-79
2024/03/26 14:17:47;;;;;;;4.50;2.60;;;22.90;33.40;;;;;;5069483;28;20055;-79
2024/03/26 14:20:13;;;;;;;8.48;2.45;;;22.60;33.30;;;;;;5070186;28;20071;-79
2024/03/26 14:22:41;;;;;;;6.50;2.67;;;22.40;34.10;;;;;;5064996;28;20506;-79
2024/03/26 14:25:18;;;;;;;6.70;2.30;;;22.20;34.00;;;;;;5056927;28;20455;-79
2024/03/26 14:27:47;;;;;;;5.35;2.35;;;21.90;33.30;;;;;;5088411;28;20529;-79
2024/03/26 14:30:14;;;;;;;3.78;2.50;;;21.60;34.10;;;;;;5073721;28;20071;-79
2024/03/26 14:32:40;;;;;;;5.30;2.28;;;21.50;34.70;;;;;;5069602;28;20059;-79
2024/03/26 14:35:07;;;;;;;6.68;2.63;;;21.40;35.00;;;;;;5057372;28;20043;-79
2024/03/26 14:37:36;;;;;;;4.13;1.90;;;21.40;35.20;;;;;;5059338;28;20415;-79
2024/03/26 14:40:05;;;;;;;5.10;2.55;;;21.40;35.20;;;;;;5076977;28;20059;-78
2024/03/26 14:42:31;;;;;;;5.20;2.17;;;21.30;35.30;;;;;;5061217;28;20055;-79
2024/03/26 14:44:57;;;;;;;8.18;2.10;;;21.30;35.30;;;;;;5082440;28;20051;-79
2024/03/26 14:47:23;;;;;;;6.75;1.90;;;21.30;35.20;;;;;;5064326;28;20063;-79
2024/03/26 14:49:49;;;;;;;5.75;1.80;;;21.40;35.20;;;;;;5063496;28;20511;-79
2024/03/26 14:52:15;;;;;;;3.05;1.80;;;21.40;35.40;;;;;;5063573;28;20063;-79
2024/03/26 14:54:41;;;;;;;7.38;2.22;;;21.40;35.60;;;;;;5063277;28;20048;-79
2024/03/26 14:57:08;;;;;;;4.03;1.75;;;21.60;35.60;;;;;;5068963;28;20052;-79
2024/03/26 14:59:34;;;;;;;5.30;1.85;;;21.70;35.80;;;;;;5061427;28;20052;-79
2024/03/26 15:02:00;;;;;;;5.43;2.00;;;22.00;36.70;;;;;;5059191;28;20055;-79
2024/03/26 15:04:27;;;;;;;3.47;1.90;;;22.40;35.60;;;;;;5073063;28;20063;-79
2024/03/26 15:06:55;;;;;;;6.35;1.85;;;22.60;34.00;;;;;;5088636;28;20487;-79
2024/03/26 15:09:21;;;;;;;6.88;1.77;;;22.60;33.90;;;;;;5058338;28;20053;-79
2024/03/26 15:11:50;;;;;;;8.88;2.13;;;22.60;34.00;;;;;;5057284;28;20068;-79
2024/03/26 15:14:16;;;;;;;4.00;1.38;;;22.40;34.10;;;;;;5057555;28;20548;-79
2024/03/26 15:16:47;;;;;;;5.38;1.50;;;22.30;34.40;;;;;;5065716;28;20072;-79
2024/03/26 15:19:13;;;;;;;7.45;1.70;;;22.20;34.80;;;;;;5082219;28;20044;-79
2024/03/26 15:21:39;;;;;;;3.35;1.60;;;22.00;35.30;;;;;;5078386;28;20350;-79
2024/03/26 15:24:05;;;;;;;3.83;1.50;;;21.90;35.80;;;;;;5062990;28;20055;-79
2024/03/26 15:32:03;;;;;;;6.40;2.13;;;21.40;35.40;;;;;;5076012;28;19924;-79
2024/03/26 15:34:29;;;;;;;8.68;1.90;;;21.20;35.70;;;;;;5059427;28;20056;-79
2024/03/26 15:36:55;;;;;;;4.95;1.55;;;21.10;35.80;;;;;;5056853;28;20473;-79
2024/03/26 15:39:21;;;;;;;6.03;1.85;;;20.90;36.50;;;;;;5074325;28;20505;-80
2024/03/26 15:41:47;;;;;;;3.65;1.52;;;20.70;36.80;;;;;;5055144;28;20056;-79
2024/03/26 15:44:15;;;;;;;5.68;1.80;;;20.50;36.60;;;;;;5053824;28;20063;-79
2024/03/26 15:46:44;;;;;;;8.25;1.60;;;20.30;36.70;;;;;;5054857;28;20061;-79
2024/03/26 15:49:10;;;;;;;6.68;2.15;;;20.00;37.90;;;;;;5070856;28;20052;-79
2024/03/26 15:51:38;;;;;;;3.70;1.85;;;19.80;37.70;;;;;;5069662;28;20521;-79
2024/03/26 15:54:05;;;;;;;5.35;1.50;;;19.60;38.00;;;;;;5068589;28;20055;-79
2024/03/26 15:56:33;;;;;;;7.15;1.60;;;19.30;38.50;;;;;;5066556;28;20060;-80
2024/03/26 15:58:58;;;;;;;5.00;1.88;;;19.20;39.00;;;;;;5084765;28;20060;-79
2024/03/26 16:01:25;;;;;;;4.55;1.38;;;19.10;40.20;;;;;;5085304;28;20052;-79
2024/03/26 16:03:54;;;;;;;4.85;1.58;;;19.00;41.20;;;;;;5083433;28;20085;-79
2024/03/26 16:06:22;;;;;;;8.98;1.95;;;18.90;41.00;;;;;;5074227;28;20471;-79
2024/03/26 16:08:48;;;;;;;4.70;1.60;;;18.80;41.30;;;;;;5082008;28;20102;-79
2024/03/26 16:11:14;;;;;;;6.03;2.15;;;18.70;42.40;;;;;;5066335;28;20055;-79
2024/03/26 16:13:42;;;;;;;11.75;2.42;;;18.60;41.90;;;;;;5062251;28;20052;-79
2024/03/26 16:16:09;;;;;;;6.78;2.60;;;18.50;41.90;;;;;;5060135;28;20060;-79
2024/03/26 16:18:35;;;;;;;7.03;2.42;;;18.40;42.30;;;;;;5075465;28;20057;-79
2024/03/26 16:21:01;;;;;;;7.50;2.22;;;18.40;42.30;;;;;;5058061;28;20063;-79
2024/03/26 16:23:27;;;;;;;5.80;2.33;;;18.20;42.10;;;;;;5059636;28;20080;-79
2024/03/26 16:25:53;;;;;;;7.95;2.30;;;18.10;42.80;;;;;;5074413;28;20100;-79
2024/03/26 16:28:22;;;;;;;7.40;2.47;;;17.90;41.90;;;;;;5073474;28;20777;-79
2024/03/26 16:30:48;;;;;;;9.40;2.50;;;17.80;42.50;;;;;;5087473;28;20048;-79
2024/03/26 16:33:14;;;;;;;4.78;2.28;;;17.60;43.50;;;;;;5063010;28;20063;-79
2024/03/26 16:35:41;;;;;;;8.73;2.50;;;17.60;42.90;;;;;;5065051;28;20056;-79
2024/03/26 16:38:09;;;;;;;5.78;1.52;;;17.40;41.30;;;;;;5082209;28;20062;-79
2024/03/26 16:40:37;;;;;;;5.80;0.80;;;17.30;36.70;;;;;;5068299;28;20067;-79
2024/03/26 16:43:03;;;;;;;5.60;1.25;;;17.20;35.10;;;;;;5065461;28;20052;-78
2024/03/26 16:45:29;;;;;;;10.20;1.23;;;17.20;33.80;;;;;;5065424;28;20346;-79
2024/03/26 16:47:55;;;;;;;4.05;1.08;;;17.20;33.80;;;;;;5063539;28;20059;-79
2024/03/26 16:50:21;;;;;;;8.75;1.00;;;17.10;33.80;;;;;;5062374;28;20056;-79
2024/03/26 16:52:47;;;;;;;4.22;1.08;;;17.10;33.90;;;;;;5061053;28;20060;-78
2024/03/26 16:55:13;;;;;;;9.15;0.95;;;17.10;33.70;;;;;;5068818;28;20058;-79
2024/03/26 16:57:39;;;;;;;12.35;1.42;;;17.10;33.40;;;;;;5058092;28;20469;-79
2024/03/26 17:00:06;;;;;;;8.55;1.65;;;17.10;33.40;;;;;;5074045;28;20052;-78
2024/03/26 17:02:35;;;;;;;5.57;0.88;;;17.10;33.30;;;;;;5078998;28;20052;-78
2024/03/26 17:05:09;;;;;;;3.92;1.00;;;17.10;33.60;;;;;;5078042;28;20052;-79
2024/03/26 17:07:37;;;;;;;4.95;1.20;;;17.00;33.80;;;;;;5075362;28;20056;-79
2024/03/26 17:10:08;;;;;;;6.03;1.40;;;17.00;34.00;;;;;;5070424;28;20044;-79
2024/03/26 17:12:37;;;;;;;9.35;1.30;;;16.90;34.10;;;;;;5074687;28;20059;-79
2024/03/26 17:15:04;;;;;;;7.78;1.52;;;16.90;34.20;;;;;;5081367;28;20060;-79
2024/03/26 17:17:30;;;;;;;4.05;1.00;;;16.90;34.30;;;;;;5080481;28;20108;-79
2024/03/26 17:19:56;;;;;;;5.00;1.33;;;16.80;34.40;;;;;;5081652;28;20052;-79
2024/03/26 17:22:28;;;;;;;7.03;1.65;;;16.80;34.30;;;;;;5065189;28;20056;-79
2024/03/26 17:24:54;;;;;;;12.27;1.65;;;16.80;34.70;;;;;;5072616;28;20387;-79
2024/03/26 17:27:20;;;;;;;10.95;1.35;;;16.80;35.00;;;;;;5083205;28;20055;-79
2024/03/26 17:29:48;;;;;;;5.25;1.30;;;16.80;34.80;;;;;;5076995;28;20135;-79
2024/03/26 17:32:13;;;;;;;9.93;1.15;;;16.80;34.70;;;;;;5075836;28;20382;-78
2024/03/26 17:34:39;;;;;;;8.15;1.67;;;16.90;34.80;;;;;;5057825;28;20056;-79
2024/03/26 17:37:12;;;;;;;6.90;1.25;;;16.80;34.60;;;;;;5057104;28;20068;-79
2024/03/26 17:39:39;;;;;;;11.18;1.30;;;16.80;35.00;;;;;;5083409;28;20048;-79
2024/03/26 17:42:05;;;;;;;7.75;1.20;;;16.80;35.10;;;;;;5073851;28;20055;-79
2024/03/26 17:44:31;;;;;;;4.32;1.20;;;16.80;34.60;;;;;;5082405;28;20108;-79
2024/03/26 17:46:58;;;;;;;7.25;1.20;;;16.80;35.00;;;;;;5060715;28;20048;-80
2024/03/26 17:49:24;;;;;;;7.32;1.30;;;16.80;35.00;;;;;;5069003;28;20063;-80
2024/03/26 17:51:50;;;;;;;3.67;1.08;;;16.80;35.00;;;;;;5065250;28;20487;-80
2024/03/26 17:54:16;;;;;;;4.25;1.10;;;16.80;35.60;;;;;;5064675;28;20040;-80
2024/03/26 17:56:41;;;;;;;4.75;1.08;;;16.80;35.10;;;;;;5066801;28;20063;-80
2024/03/26 17:59:07;;;;;;;3.70;1.20;;;16.70;35.10;;;;;;5082698;28;20045;-89
2024/03/26 18:01:34;;;;;;;12.63;1.40;;;16.70;35.20;;;;;;5069160;28;20059;-78
2024/03/26 18:04:02;;;;;;;5.82;1.27;;;16.70;35.20;;;;;;5061675;28;20052;-78
2024/03/26 18:06:28;;;;;;;5.75;1.10;;;16.70;35.40;;;;;;5067811;28;20052;-78
2024/03/26 18:09:09;;;;;;;4.43;1.27;;;16.70;35.30;;;;;;5080073;28;20059;-78
2024/03/26 18:11:35;;;;;;;3.72;1.08;;;16.60;35.50;;;;;;5075851;28;20049;-78
2024/03/26 18:14:03;;;;;;;5.75;1.40;;;16.60;35.40;;;;;;5081353;28;20051;-79
2024/03/26 18:16:28;;;;;;;5.00;1.00;;;16.60;35.40;;;;;;5069636;28;20052;-78
2024/03/26 18:18:54;;;;;;;5.13;1.25;;;16.60;35.70;;;;;;5073829;28;20085;-78
2024/03/26 18:21:23;;;;;;;6.97;1.40;;;16.60;35.50;;;;;;5058364;28;20122;-78
2024/03/26 18:23:49;;;;;;;6.20;1.45;;;16.60;35.50;;;;;;5081932;28;20757;-78
2024/03/26 18:26:17;;;;;;;4.55;1.20;;;16.60;35.70;;;;;;5062270;28;20068;-78
2024/03/26 18:28:45;;;;;;;8.27;1.67;;;16.60;35.70;;;;;;5065268;28;20109;-78
2024/03/26 18:31:12;;;;;;;2.78;1.25;;;16.60;35.70;;;;;;5065635;28;20056;-78
2024/03/26 18:33:38;;;;;;;7.15;1.92;;;16.60;35.80;;;;;;5061463;28;20388;-78
2024/03/26 18:36:04;;;;;;;6.35;1.13;;;16.60;35.80;;;;;;5066140;28;20060;-78
2024/03/26 18:38:32;;;;;;;5.78;1.80;;;16.60;35.70;;;;;;5069448;28;20090;-78
2024/03/26 18:40:58;;;;;;;4.75;1.90;;;16.60;35.90;;;;;;5081065;28;20056;-78
2024/03/26 18:43:25;;;;;;;8.38;2.63;;;16.60;36.10;;;;;;5077717;28;20067;-78
2024/03/26 18:45:52;;;;;;;5.00;1.40;;;16.60;35.90;;;;;;5076826;28;20056;-78
2024/03/26 18:48:21;;;;;;;5.30;1.75;;;16.60;35.90;;;;;;5087028;28;20059;-78
2024/03/26 18:50:58;;;;;;;6.40;1.73;;;16.60;35.90;;;;;;5080341;28;20468;-78
2024/03/26 18:53:27;;;;;;;4.75;1.50;;;16.70;36.10;;;;;;5072125;28;20124;-78
2024/03/26 18:56:00;;;;;;;4.75;1.30;;;16.70;35.80;;;;;;5065730;28;20059;-78
2024/03/26 18:58:28;;;;;;;3.10;1.10;;;16.70;35.70;;;;;;5058702;28;20057;-78
2024/03/26 19:00:55;;;;;;;4.32;0.95;;;16.70;35.70;;;;;;5058766;28;20095;-79
2024/03/26 19:03:23;;;;;;;4.13;1.50;;;16.70;36.10;;;;;;5079051;28;20726;-78
2024/03/26 19:05:51;;;;;;;3.10;0.80;;;16.70;36.00;;;;;;5076731;28;20109;-78
2024/03/26 19:08:20;;;;;;;5.60;1.13;;;16.80;36.00;;;;;;5064843;28;20070;-78
2024/03/26 19:10:55;;;;;;;2.08;0.65;;;16.70;36.30;;;;;;5063347;28;20392;-78
2024/03/26 19:13:21;;;;;;;2.50;0.90;;;16.70;36.30;;;;;;5068427;28;20044;-77
2024/03/26 19:15:48;;;;;;;3.22;0.77;;;16.70;36.20;;;;;;5081173;28;20075;-79
2024/03/26 19:18:15;;;;;;;2.08;0.85;;;16.70;36.30;;;;;;5073180;28;20064;-79
2024/03/26 19:20:51;;;;;;;1.38;0.65;;;16.70;36.30;;;;;;5069157;28;20059;-79
2024/03/26 19:23:17;;;;;;;5.45;0.47;;;16.70;36.80;;;;;;5068184;28;20779;-78
2024/03/26 19:25:44;;;;;;;1.30;0.60;;;16.70;36.70;;;;;;5071832;28;20059;-78
2024/03/26 19:28:13;;;;;;;3.20;0.68;;;16.70;36.70;;;;;;5072820;28;20055;-79
2024/03/26 19:30:40;;;;;;;2.40;0.80;;;16.70;36.80;;;;;;5056939;28;20527;-79
2024/03/26 19:33:10;;;;;;;0.98;0.60;;;16.70;36.80;;;;;;5057312;28;20059;-78
2024/03/26 19:35:39;;;;;;;2.47;0.60;;;16.70;37.00;;;;;;5081751;28;20467;-78
2024/03/26 19:38:06;;;;;;;0.90;0.40;;;16.70;36.80;;;;;;5056823;28;20267;-78
2024/03/26 19:40:35;;;;;;;3.72;0.40;;;16.70;36.80;;;;;;5079050;28;20052;-79
2024/03/26 19:43:03;;;;;;;0.85;0.50;;;16.70;37.00;;;;;;5079490;28;20049;-79
2024/03/26 19:45:29;;;;;;;0.88;0.60;;;16.70;37.20;;;;;;5065733;28;20122;-78
2024/03/26 19:47:55;;;;;;;0.70;0.40;;;16.70;37.20;;;;;;5072224;28;20059;-79
2024/03/26 19:50:22;;;;;;;1.33;0.50;;;16.70;37.20;;;;;;5067435;28;20134;-78
2024/03/26 19:52:53;;;;;;;1.20;0.57;;;16.70;37.30;;;;;;5065250;28;20059;-78
2024/03/26 19:55:19;;;;;;;1.20;0.80;;;16.70;37.40;;;;;;5063533;28;20443;-79
2024/03/26 19:57:47;;;;;;;2.05;0.70;;;16.70;37.30;;;;;;5068624;28;20207;-78
2024/03/26 20:00:13;;;;;;;1.20;0.60;;;16.80;37.40;;;;;;5062604;28;20052;-79
2024/03/26 20:02:39;;;;;;;2.28;0.95;;;16.80;37.40;;;;;;5064216;28;20404;-79
2024/03/26 20:05:05;;;;;;;0.98;0.50;;;16.80;37.60;;;;;;5059554;28;20052;-79
2024/03/26 20:07:31;;;;;;;1.65;0.45;;;16.70;37.60;;;;;;5054956;28;20055;-79
2024/03/26 20:09:57;;;;;;;0.70;0.50;;;16.70;37.70;;;;;;5074505;28;20055;-79
2024/03/26 20:12:23;;;;;;;1.20;0.40;;;16.70;37.60;;;;;;5075836;28;20049;-79
2024/03/26 20:14:49;;;;;;;4.38;0.55;;;16.70;37.60;;;;;;5075672;28;20111;-79
2024/03/26 20:17:16;;;;;;;1.77;0.82;;;16.80;37.70;;;;;;5079127;28;20060;-78
2024/03/26 20:19:46;;;;;;;2.35;0.45;;;16.80;37.50;;;;;;5070613;28;20051;-80
2024/03/26 20:22:13;;;;;;;1.23;0.52;;;16.80;37.60;;;;;;5068884;28;20476;-79
2024/03/26 20:24:39;;;;;;;2.42;0.40;;;16.70;38.20;;;;;;5080873;28;20060;-79
2024/03/26 20:27:05;;;;;;;1.08;0.40;;;16.70;37.80;;;;;;5062863;28;20052;-79
2024/03/26 20:29:35;;;;;;;1.73;0.77;;;16.70;37.60;;;;;;5078207;28;20052;-79
2024/03/26 20:32:03;;;;;;;2.00;0.60;;;16.70;38.10;;;;;;5065609;28;20064;-78